createdAt,value
2017-09-21T00:00:39.078Z,10.10
2017-09-21T00:03:06.665Z,10.20
2017-09-21T00:05:34.161Z,10.10
2017-09-21T00:08:01.675Z,10.10
2017-09-21T00:10:29.164Z,10.00
2017-09-21T00:12:56.654Z,10.00
2017-09-21T00:15:24.162Z,9.90
2017-09-21T00:17:52.433Z,10.00
2017-09-21T00:20:20.081Z,9.90
2017-09-21T00:22:47.634Z,9.90
2017-09-21T00:25:15.141Z,9.80
2017-09-21T00:27:42.629Z,9.90
2017-09-21T00:30:10.133Z,9.80
2017-09-21T00:32:38.520Z,9.80
2017-09-21T00:35:06.069Z,9.80
2017-09-21T00:37:33.557Z,9.80
2017-09-21T00:40:01.069Z,9.70
2017-09-21T00:42:28.565Z,9.70
2017-09-21T00:44:56.843Z,9.80
2017-09-21T00:47:25.097Z,9.80
2017-09-21T00:49:53.377Z,9.70
2017-09-21T00:52:20.921Z,9.70
2017-09-21T00:54:48.417Z,9.70
2017-09-21T00:57:16.013Z,9.70
2017-09-21T00:59:43.557Z,9.70
2017-09-21T01:02:11.061Z,9.70
2017-09-21T01:04:38.549Z,9.70
2017-09-21T01:07:06.052Z,9.70
2017-09-21T01:09:34.305Z,9.70
2017-09-21T01:12:01.813Z,9.70
2017-09-21T01:14:29.294Z,9.70
2017-09-21T01:16:56.868Z,9.70
2017-09-21T01:19:24.358Z,9.70
2017-09-21T01:21:51.856Z,9.70
2017-09-21T01:24:19.356Z,9.70
2017-09-21T01:26:46.946Z,9.70
2017-09-21T01:29:14.455Z,9.70
2017-09-21T01:31:42.710Z,9.70
2017-09-21T01:34:10.216Z,9.60
2017-09-21T01:36:37.706Z,9.70
2017-09-21T01:39:05.980Z,9.70
2017-09-21T01:41:34.233Z,9.70
2017-09-21T01:44:02.513Z,9.80
2017-09-21T01:46:30.398Z,9.70
2017-09-21T01:48:57.913Z,9.80
2017-09-21T01:51:25.484Z,9.70
2017-09-21T01:53:52.973Z,9.70
2017-09-21T01:56:21.249Z,9.80
2017-09-21T01:58:49.525Z,9.80
2017-09-21T02:01:17.037Z,9.80
2017-09-21T02:03:45.298Z,9.80
2017-09-21T02:06:13.573Z,9.80
2017-09-21T02:08:41.823Z,9.70
2017-09-21T02:11:10.097Z,9.70
2017-09-21T02:13:38.372Z,9.70
2017-09-21T02:16:05.883Z,9.70
2017-09-21T02:18:34.177Z,9.70
2017-09-21T02:21:01.686Z,9.70
2017-09-21T02:23:29.945Z,9.70
2017-09-21T02:25:58.216Z,9.70
2017-09-21T02:28:26.469Z,9.70
2017-09-21T02:30:53.977Z,9.70
2017-09-21T02:33:21.465Z,9.70
2017-09-21T02:35:49.750Z,9.70
2017-09-21T02:38:17.241Z,9.70
2017-09-21T02:40:44.736Z,9.70
2017-09-21T02:43:12.245Z,9.70
2017-09-21T02:45:40.497Z,9.70
2017-09-21T02:48:08.081Z,9.60
2017-09-21T02:50:35.569Z,9.70
2017-09-21T02:53:03.077Z,9.70
2017-09-21T02:55:30.565Z,9.70
2017-09-21T02:57:58.157Z,9.70
2017-09-21T03:00:25.654Z,9.70
2017-09-21T03:02:53.156Z,9.60
2017-09-21T03:05:20.651Z,9.60
2017-09-21T03:07:49.050Z,9.60
2017-09-21T03:10:16.560Z,9.60
2017-09-21T03:12:44.054Z,9.60
2017-09-21T03:15:11.569Z,9.60
2017-09-21T03:17:39.074Z,9.60
2017-09-21T03:20:06.586Z,9.60
2017-09-21T03:22:34.119Z,9.60
2017-09-21T03:25:01.625Z,9.60
2017-09-21T03:27:29.884Z,9.60
2017-09-21T03:29:58.157Z,9.60
2017-09-21T03:32:26.422Z,9.60
2017-09-21T03:34:53.949Z,9.50
2017-09-21T03:37:21.433Z,9.50
2017-09-21T03:39:48.925Z,9.50
2017-09-21T03:42:17.209Z,9.50
2017-09-21T03:44:44.722Z,9.50
2017-09-21T03:47:12.244Z,9.50
2017-09-21T03:49:39.748Z,9.50
2017-09-21T03:52:07.253Z,9.50
2017-09-21T03:54:34.745Z,9.50
2017-09-21T03:57:02.261Z,9.40
2017-09-21T03:59:30.517Z,9.40
2017-09-21T04:01:58.910Z,9.40
2017-09-21T04:04:26.405Z,9.40
2017-09-21T04:06:53.905Z,9.40
2017-09-21T04:09:21.428Z,9.40
2017-09-21T04:11:48.924Z,9.40
2017-09-21T04:14:16.433Z,9.40
2017-09-21T04:16:43.926Z,9.40
2017-09-21T04:19:11.456Z,9.40
2017-09-21T04:21:38.953Z,9.30
2017-09-21T04:24:06.449Z,9.30
2017-09-21T04:26:34.045Z,9.30
2017-09-21T04:29:01.603Z,9.30
2017-09-21T04:31:29.109Z,9.30
2017-09-21T04:33:57.369Z,9.30
2017-09-21T04:36:25.641Z,9.30
2017-09-21T04:38:53.146Z,9.30
2017-09-21T04:41:20.838Z,9.30
2017-09-21T04:43:48.334Z,9.20
2017-09-21T04:46:15.865Z,9.30
2017-09-21T04:48:43.357Z,9.30
2017-09-21T04:51:10.917Z,9.30
2017-09-21T04:53:38.464Z,9.20
2017-09-21T04:56:05.953Z,9.20
2017-09-21T04:58:33.471Z,9.20
2017-09-21T05:01:00.971Z,9.20
2017-09-21T05:03:28.486Z,9.20
2017-09-21T05:05:55.991Z,9.20
2017-09-21T05:08:23.496Z,9.20
2017-09-21T05:10:51.754Z,9.20
2017-09-21T05:13:20.041Z,9.10
2017-09-21T05:15:47.549Z,9.10
2017-09-21T05:18:15.830Z,9.20
2017-09-21T05:20:43.396Z,9.10
2017-09-21T05:23:10.890Z,9.20
2017-09-21T05:25:38.408Z,9.20
2017-09-21T05:28:05.903Z,9.20
2017-09-21T05:30:33.464Z,9.20
2017-09-21T05:33:00.958Z,9.20
2017-09-21T05:35:28.462Z,9.20
2017-09-21T05:37:55.959Z,9.20
2017-09-21T05:40:23.476Z,9.20
2017-09-21T05:42:51.734Z,9.20
2017-09-21T05:45:19.998Z,9.30
2017-09-21T05:47:48.277Z,9.30
2017-09-21T05:50:15.769Z,9.30
2017-09-21T05:52:43.388Z,9.30
2017-09-21T05:55:10.933Z,9.30
2017-09-21T05:57:38.453Z,9.30
2017-09-21T06:00:05.949Z,9.40
2017-09-21T06:02:33.467Z,9.40
2017-09-21T06:05:00.965Z,9.50
2017-09-21T06:07:28.477Z,9.50
2017-09-21T06:09:55.978Z,9.50
2017-09-21T06:12:23.473Z,9.60
2017-09-21T06:14:50.980Z,9.60
2017-09-21T06:17:18.481Z,9.60
2017-09-21T06:19:46.001Z,9.60
2017-09-21T06:22:13.589Z,9.70
2017-09-21T06:24:41.109Z,9.70
2017-09-21T06:27:09.370Z,9.80
2017-09-21T06:29:37.636Z,9.80
2017-09-21T06:32:05.125Z,9.80
2017-09-21T06:34:32.641Z,9.90
2017-09-21T06:37:00.134Z,9.90
2017-09-21T06:39:27.658Z,10.00
2017-09-21T06:41:55.145Z,9.90
2017-09-21T06:44:23.408Z,10.10
2017-09-21T06:46:51.692Z,10.10
2017-09-21T06:49:19.193Z,10.10
2017-09-21T06:51:48.233Z,10.20
2017-09-21T06:54:15.737Z,10.20
2017-09-21T06:56:44.013Z,10.70
2017-09-21T06:59:11.513Z,10.70
2017-09-21T07:01:39.125Z,12.30
2017-09-21T07:04:06.622Z,13.60
2017-09-21T07:06:34.912Z,15.30
2017-09-21T07:09:02.402Z,15.30
2017-09-21T07:11:29.894Z,16.70
2017-09-21T07:13:57.433Z,16.80
2017-09-21T07:16:24.922Z,17.00
2017-09-21T07:18:52.521Z,17.50
2017-09-21T07:21:20.070Z,19.50
2017-09-21T07:23:47.634Z,19.10
2017-09-21T07:26:15.122Z,19.50
2017-09-21T07:28:43.397Z,20.30
2017-09-21T07:31:11.653Z,20.30
2017-09-21T07:33:39.941Z,20.60
2017-09-21T07:36:07.429Z,20.70
2017-09-21T07:38:34.917Z,19.90
2017-09-21T07:41:02.426Z,20.00
2017-09-21T07:43:29.913Z,21.00
2017-09-21T07:45:57.460Z,21.20
2017-09-21T07:48:24.952Z,20.50
2017-09-21T07:50:53.967Z,19.60
2017-09-21T07:53:21.469Z,19.60
2017-09-21T07:55:48.983Z,20.00
2017-09-21T07:58:16.469Z,20.00
2017-09-21T08:00:43.973Z,19.20
2017-09-21T08:03:11.465Z,20.00
2017-09-21T08:05:39.737Z,19.20
2017-09-21T08:08:08.009Z,20.30
2017-09-21T08:10:35.531Z,20.30
2017-09-21T08:13:03.794Z,19.60
2017-09-21T08:15:32.134Z,19.10
2017-09-21T08:17:59.617Z,19.10
2017-09-21T08:20:27.104Z,18.20
2017-09-21T08:22:54.705Z,19.00
2017-09-21T08:25:22.195Z,18.90
2017-09-21T08:27:49.697Z,18.10
2017-09-21T08:30:17.177Z,18.00
2017-09-21T08:32:44.681Z,17.70
2017-09-21T08:35:12.177Z,17.80
2017-09-21T08:37:39.683Z,17.40
2017-09-21T08:40:07.169Z,18.10
2017-09-21T08:42:34.673Z,18.00
2017-09-21T08:45:02.169Z,17.90
2017-09-21T08:47:30.469Z,20.20
2017-09-21T08:49:57.995Z,20.20
2017-09-21T08:52:25.517Z,18.80
2017-09-21T08:54:53.806Z,18.90
2017-09-21T08:57:21.299Z,18.90
2017-09-21T08:59:48.810Z,18.90
2017-09-21T09:02:16.297Z,19.30
2017-09-21T09:04:43.805Z,18.70
2017-09-21T09:07:11.317Z,18.70
2017-09-21T09:09:38.866Z,19.00
2017-09-21T09:12:06.406Z,19.30
2017-09-21T09:14:33.913Z,19.10
2017-09-21T09:17:01.415Z,19.10
2017-09-21T09:19:28.913Z,19.30
2017-09-21T09:21:57.169Z,18.90
2017-09-21T09:24:25.446Z,19.00
2017-09-21T09:26:53.710Z,18.60
2017-09-21T09:29:21.228Z,18.60
2017-09-21T09:31:48.728Z,18.70
2017-09-21T09:34:16.219Z,18.40
2017-09-21T09:36:44.493Z,18.60
2017-09-21T09:39:12.749Z,18.80
2017-09-21T09:41:41.023Z,18.90
2017-09-21T09:44:08.574Z,18.90
2017-09-21T09:46:36.086Z,18.90
2017-09-21T09:49:04.341Z,20.00
2017-09-21T09:51:31.854Z,20.00
2017-09-21T09:53:59.345Z,19.90
2017-09-21T09:56:27.618Z,20.20
2017-09-21T09:58:55.109Z,20.20
2017-09-21T10:01:22.613Z,19.40
2017-09-21T10:03:50.105Z,19.10
2017-09-21T10:06:17.625Z,20.20
2017-09-21T10:08:45.118Z,20.30
2017-09-21T10:11:13.369Z,19.70
2017-09-21T10:13:40.872Z,19.70
2017-09-21T10:16:08.363Z,19.90
2017-09-21T10:18:36.638Z,19.70
2017-09-21T10:21:04.125Z,19.70
2017-09-21T10:23:31.629Z,19.90
2017-09-21T10:25:59.278Z,20.20
2017-09-21T10:28:26.780Z,19.80
2017-09-21T10:30:54.396Z,20.40
2017-09-21T10:33:21.909Z,19.90
2017-09-21T10:35:49.393Z,20.00
2017-09-21T10:38:16.873Z,20.50
2017-09-21T10:40:45.157Z,19.80
2017-09-21T10:43:12.653Z,19.70
2017-09-21T10:45:40.157Z,20.20
2017-09-21T10:48:07.649Z,20.40
2017-09-21T10:50:35.256Z,20.50
2017-09-21T10:53:02.744Z,20.20
2017-09-21T10:55:31.010Z,20.00
2017-09-21T10:57:59.261Z,19.70
2017-09-21T11:00:26.866Z,19.60
2017-09-21T11:02:54.349Z,19.80
2017-09-21T11:05:21.873Z,20.00
2017-09-21T11:07:49.377Z,20.30
2017-09-21T11:10:16.860Z,20.20
2017-09-21T11:12:44.459Z,20.00
2017-09-21T11:15:11.958Z,20.10
2017-09-21T11:17:39.544Z,20.30
2017-09-21T11:20:07.091Z,20.60
2017-09-21T11:22:34.594Z,20.40
2017-09-21T11:25:02.085Z,20.00
2017-09-21T11:27:29.581Z,20.00
2017-09-21T11:29:57.091Z,20.00
2017-09-21T11:32:24.597Z,20.10
2017-09-21T11:34:52.844Z,19.90
2017-09-21T11:37:21.228Z,20.00
2017-09-21T11:39:48.714Z,20.00
2017-09-21T11:42:16.205Z,20.20
2017-09-21T11:44:43.756Z,20.20
2017-09-21T11:47:11.300Z,20.30
2017-09-21T11:49:38.801Z,20.00
2017-09-21T11:52:06.292Z,20.40
2017-09-21T11:54:33.805Z,20.30
2017-09-21T11:57:01.289Z,20.70
2017-09-21T11:59:28.786Z,20.50
2017-09-21T12:01:56.273Z,20.10
2017-09-21T12:04:23.884Z,20.40
2017-09-21T12:06:51.384Z,20.10
2017-09-21T12:09:19.766Z,19.70
2017-09-21T12:11:47.273Z,19.70
2017-09-21T12:14:14.749Z,20.10
2017-09-21T12:16:42.256Z,20.40
2017-09-21T12:19:09.736Z,20.00
2017-09-21T12:21:37.242Z,19.60
2017-09-21T12:24:04.737Z,19.90
2017-09-21T12:26:32.294Z,19.80
2017-09-21T12:28:59.778Z,20.00
2017-09-21T12:31:27.380Z,20.00
2017-09-21T12:33:54.865Z,20.20
2017-09-21T12:36:22.446Z,20.00
2017-09-21T12:38:49.933Z,19.80
2017-09-21T12:41:17.445Z,19.70
2017-09-21T12:43:44.958Z,20.10
2017-09-21T12:46:13.209Z,20.40
2017-09-21T12:48:41.501Z,20.50
2017-09-21T12:51:08.998Z,20.50
2017-09-21T12:53:37.271Z,19.60
2017-09-21T12:56:04.844Z,19.60
2017-09-21T12:58:32.346Z,19.60
2017-09-21T13:01:00.599Z,19.70
2017-09-21T13:03:28.885Z,19.80
2017-09-21T13:05:57.189Z,19.90
2017-09-21T13:08:24.716Z,19.90
2017-09-21T13:10:52.210Z,19.70
2017-09-21T13:13:20.502Z,20.00
2017-09-21T13:15:48.060Z,20.00
2017-09-21T13:18:15.595Z,19.70
2017-09-21T13:20:43.109Z,19.60
2017-09-21T13:23:11.370Z,20.00
2017-09-21T13:25:38.885Z,20.00
2017-09-21T13:28:06.382Z,20.00
2017-09-21T13:30:33.889Z,19.80
2017-09-21T13:33:02.150Z,19.90
2017-09-21T13:35:30.436Z,20.10
2017-09-21T13:37:57.925Z,20.10
2017-09-21T13:40:25.428Z,19.80
2017-09-21T13:42:52.973Z,20.00
2017-09-21T13:45:20.509Z,20.00
2017-09-21T13:47:48.010Z,19.60
2017-09-21T13:50:15.601Z,19.80
2017-09-21T13:52:43.135Z,20.00
2017-09-21T13:55:10.601Z,20.00
2017-09-21T13:57:38.869Z,19.90
2017-09-21T14:00:07.126Z,20.20
2017-09-21T14:02:35.397Z,20.30
2017-09-21T14:05:02.957Z,20.30
2017-09-21T14:07:32.137Z,19.80
2017-09-21T14:09:59.686Z,19.80
2017-09-21T14:12:27.230Z,19.60
2017-09-21T14:14:54.720Z,20.00
2017-09-21T14:17:22.314Z,20.10
2017-09-21T14:19:49.811Z,20.10
2017-09-21T14:22:17.422Z,20.10
2017-09-21T14:24:44.958Z,20.20
2017-09-21T14:27:12.472Z,20.20
2017-09-21T14:29:40.728Z,20.20
2017-09-21T14:32:09.017Z,20.20
2017-09-21T14:34:36.526Z,20.20
2017-09-21T14:37:04.786Z,20.10
2017-09-21T14:39:33.045Z,20.00
2017-09-21T14:42:01.301Z,20.10
2017-09-21T14:44:28.806Z,20.10
2017-09-21T14:46:56.289Z,19.90
2017-09-21T14:49:23.789Z,20.20
2017-09-21T14:51:51.277Z,20.20
2017-09-21T14:54:18.781Z,20.40
2017-09-21T14:56:46.265Z,20.20
2017-09-21T14:59:13.809Z,20.20
2017-09-21T15:01:41.361Z,20.10
2017-09-21T15:04:08.878Z,19.80
2017-09-21T15:06:37.134Z,20.20
2017-09-21T15:09:05.390Z,20.40
2017-09-21T15:11:33.658Z,20.50
2017-09-21T15:14:01.906Z,20.20
2017-09-21T15:16:29.405Z,20.20
2017-09-21T15:18:56.885Z,20.10
2017-09-21T15:21:24.468Z,20.20
2017-09-21T15:23:51.961Z,20.30
2017-09-21T15:26:19.461Z,20.20
2017-09-21T15:28:46.998Z,20.20
2017-09-21T15:31:14.505Z,19.80
2017-09-21T15:33:42.081Z,19.90
2017-09-21T15:36:09.627Z,19.90
2017-09-21T15:38:37.114Z,20.00
2017-09-21T15:41:04.601Z,19.80
2017-09-21T15:43:32.903Z,19.70
2017-09-21T15:46:00.394Z,19.70
2017-09-21T15:48:28.658Z,19.70
2017-09-21T15:50:56.913Z,19.40
2017-09-21T15:53:24.421Z,19.40
2017-09-21T15:55:51.910Z,19.50
2017-09-21T15:58:20.178Z,19.40
2017-09-21T16:00:47.664Z,19.40
2017-09-21T16:03:15.169Z,19.50
2017-09-21T16:05:42.716Z,19.50
2017-09-21T16:08:10.465Z,19.50
2017-09-21T16:10:37.955Z,19.40
2017-09-21T16:13:05.441Z,19.30
2017-09-21T16:15:33.714Z,19.20
2017-09-21T16:18:01.215Z,19.20
2017-09-21T16:20:28.760Z,19.30
2017-09-21T16:22:56.244Z,19.20
2017-09-21T16:25:23.745Z,19.10
2017-09-21T16:27:51.233Z,19.00
2017-09-21T16:30:18.748Z,19.00
2017-09-21T16:32:46.269Z,19.00
2017-09-21T16:35:13.768Z,19.00
2017-09-21T16:37:41.261Z,18.90
2017-09-21T16:40:08.773Z,18.80
2017-09-21T16:42:37.021Z,18.80
2017-09-21T16:45:04.507Z,18.70
2017-09-21T16:47:32.008Z,18.70
2017-09-21T16:49:59.517Z,18.60
2017-09-21T16:52:27.022Z,18.60
2017-09-21T16:54:54.504Z,18.50
2017-09-21T16:57:22.037Z,18.40
2017-09-21T16:59:49.556Z,18.40
2017-09-21T17:02:17.061Z,18.30
2017-09-21T17:04:44.546Z,18.10
2017-09-21T17:07:12.069Z,18.00
2017-09-21T17:09:40.326Z,17.90
2017-09-21T17:12:08.620Z,17.80
2017-09-21T17:14:36.108Z,17.70
2017-09-21T17:17:03.606Z,17.70
2017-09-21T17:19:31.094Z,17.60
2017-09-21T17:21:58.605Z,17.50
2017-09-21T17:24:26.089Z,17.40
2017-09-21T17:26:53.597Z,17.40
2017-09-21T17:29:21.077Z,17.30
2017-09-21T17:31:48.589Z,17.20
2017-09-21T17:34:16.068Z,17.10
2017-09-21T17:36:44.365Z,17.00
2017-09-21T17:39:11.866Z,17.00
2017-09-21T17:41:39.441Z,16.90
2017-09-21T17:44:06.945Z,16.80
2017-09-21T17:46:34.429Z,16.70
2017-09-21T17:49:01.938Z,16.70
2017-09-21T17:51:29.517Z,16.60
2017-09-21T17:53:57.025Z,16.60
2017-09-21T17:56:24.526Z,16.50
2017-09-21T17:58:52.045Z,16.40
2017-09-21T18:01:19.543Z,16.40
2017-09-21T18:03:47.025Z,16.40
2017-09-21T18:06:14.529Z,16.30
2017-09-21T18:08:42.058Z,16.30
2017-09-21T18:11:09.544Z,16.30
2017-09-21T18:13:37.793Z,16.20
2017-09-21T18:16:05.371Z,16.20
2017-09-21T18:18:32.914Z,16.20
2017-09-21T18:21:00.417Z,16.10
2017-09-21T18:23:27.914Z,16.10
2017-09-21T18:25:55.416Z,16.10
2017-09-21T18:28:23.661Z,16.00
2017-09-21T18:30:51.181Z,15.90
2017-09-21T18:33:18.679Z,15.90
2017-09-21T18:35:46.210Z,15.90
2017-09-21T18:38:14.499Z,15.80
2017-09-21T18:40:41.990Z,15.80
2017-09-21T18:43:09.505Z,15.70
2017-09-21T18:45:36.993Z,15.70
2017-09-21T18:48:05.273Z,15.60
2017-09-21T18:50:32.828Z,15.60
2017-09-21T18:53:00.332Z,15.60
2017-09-21T18:55:28.592Z,15.50
2017-09-21T18:57:56.097Z,15.50
2017-09-21T19:00:23.589Z,15.50
2017-09-21T19:02:51.865Z,15.40
2017-09-21T19:05:20.117Z,15.40
2017-09-21T19:07:48.394Z,15.30
2017-09-21T19:10:15.884Z,15.30
2017-09-21T19:12:43.396Z,15.30
2017-09-21T19:15:10.929Z,15.20
2017-09-21T19:17:38.430Z,15.20
2017-09-21T19:20:05.937Z,15.10
2017-09-21T19:22:33.458Z,15.10
2017-09-21T19:25:01.001Z,15.10
2017-09-21T19:27:28.484Z,15.00
2017-09-21T19:29:56.009Z,15.00
2017-09-21T19:32:23.494Z,14.90
2017-09-21T19:34:51.078Z,14.90
2017-09-21T19:37:18.576Z,14.90
2017-09-21T19:39:46.162Z,14.90
2017-09-21T19:42:13.641Z,14.90
2017-09-21T19:44:41.166Z,14.90
2017-09-21T19:47:08.653Z,14.90
2017-09-21T19:49:36.149Z,14.80
2017-09-21T19:52:03.681Z,14.80
2017-09-21T19:54:31.224Z,14.80
2017-09-21T19:56:58.725Z,14.70
2017-09-21T19:59:26.319Z,14.70
2017-09-21T20:01:53.852Z,14.70
2017-09-21T20:04:21.346Z,14.60
2017-09-21T20:06:48.859Z,14.60
2017-09-21T20:09:16.379Z,14.50
2017-09-21T20:11:43.881Z,14.50
2017-09-21T20:14:11.370Z,14.40
2017-09-21T20:16:38.885Z,14.40
2017-09-21T20:19:07.146Z,14.30
2017-09-21T20:21:35.413Z,14.20
2017-09-21T20:24:03.665Z,14.20
2017-09-21T20:26:31.934Z,14.20
2017-09-21T20:29:00.189Z,14.10
2017-09-21T20:31:28.472Z,14.10
2017-09-21T20:33:56.021Z,14.10
2017-09-21T20:36:23.567Z,14.00
2017-09-21T20:38:51.076Z,14.00
2017-09-21T20:41:19.334Z,13.90
2017-09-21T20:43:46.844Z,13.90
2017-09-21T20:46:14.357Z,13.90
2017-09-21T20:48:41.866Z,13.80
2017-09-21T20:51:09.446Z,13.80
2017-09-21T20:53:36.969Z,13.80
2017-09-21T20:56:05.225Z,13.70
2017-09-21T20:58:33.497Z,13.70
2017-09-21T21:01:01.748Z,13.70
2017-09-21T21:03:30.017Z,13.70
2017-09-21T21:05:57.518Z,13.70
2017-09-21T21:08:25.023Z,13.70
2017-09-21T21:10:52.524Z,13.60
2017-09-21T21:13:20.037Z,13.50
2017-09-21T21:15:47.525Z,13.60
2017-09-21T21:18:15.808Z,13.50
2017-09-21T21:20:43.375Z,13.60
2017-09-21T21:23:10.897Z,13.50
2017-09-21T21:25:38.401Z,13.50
2017-09-21T21:28:05.889Z,13.50
2017-09-21T21:30:33.425Z,13.50
2017-09-21T21:33:00.960Z,13.50
2017-09-21T21:35:28.538Z,13.40
2017-09-21T21:37:56.026Z,13.40
2017-09-21T21:40:24.298Z,13.40
2017-09-21T21:42:52.599Z,13.40
2017-09-21T21:45:20.109Z,13.30
2017-09-21T21:47:48.395Z,13.30
2017-09-21T21:50:15.928Z,13.30
2017-09-21T21:52:43.417Z,13.30
2017-09-21T21:55:10.934Z,13.30
2017-09-21T21:57:38.456Z,13.30
2017-09-21T22:00:05.948Z,13.30
2017-09-21T22:02:33.453Z,13.30
2017-09-21T22:05:00.940Z,13.30
2017-09-21T22:07:28.529Z,13.30
2017-09-21T22:09:56.017Z,13.20
2017-09-21T22:12:23.521Z,13.20
2017-09-21T22:14:51.024Z,13.20
2017-09-21T22:17:18.615Z,13.20
2017-09-21T22:19:46.109Z,13.20
2017-09-21T22:22:13.613Z,13.20
2017-09-21T22:24:41.116Z,13.20
2017-09-21T22:27:08.615Z,13.20
2017-09-21T22:29:36.889Z,13.20
2017-09-21T22:32:04.382Z,13.20
2017-09-21T22:34:31.910Z,13.20
2017-09-21T22:36:59.405Z,13.20
2017-09-21T22:39:26.918Z,13.20
2017-09-21T22:41:54.401Z,13.10
2017-09-21T22:44:21.957Z,13.10
2017-09-21T22:46:49.456Z,13.10
2017-09-21T22:49:16.982Z,13.10
2017-09-21T22:51:44.468Z,13.10
2017-09-21T22:54:11.953Z,13.00
2017-09-21T22:56:39.509Z,13.00
2017-09-21T22:59:07.005Z,13.00
2017-09-21T23:01:34.508Z,13.00
2017-09-21T23:04:02.009Z,12.90
2017-09-21T23:06:29.517Z,12.90
2017-09-21T23:08:57.001Z,12.90
2017-09-21T23:11:25.271Z,12.80
2017-09-21T23:13:53.520Z,12.80
2017-09-21T23:16:21.792Z,12.80
2017-09-21T23:18:49.291Z,12.70
2017-09-21T23:21:16.804Z,12.70
2017-09-21T23:23:44.297Z,12.70
2017-09-21T23:26:12.568Z,12.60
2017-09-21T23:28:40.820Z,12.50
2017-09-21T23:31:08.333Z,12.50
2017-09-21T23:33:35.827Z,12.50
2017-09-21T23:36:03.394Z,12.50
2017-09-21T23:38:30.936Z,12.50
2017-09-21T23:40:58.421Z,12.40
2017-09-21T23:43:25.925Z,12.40
2017-09-21T23:45:53.465Z,12.40
2017-09-21T23:48:21.089Z,12.30
2017-09-21T23:50:48.655Z,12.30
2017-09-21T23:53:16.165Z,12.20
2017-09-21T23:55:44.441Z,12.20
2017-09-21T23:58:11.949Z,12.20
